Time;durP1;ratioP1;P1;durP2;ratioP2;P2;SDS_P1;SDS_P2;PMS_P1;PMS_P2;Temp;Humidity;BMP_temperature;BMP_pressure;BME280_temperature;BME280_humidity;BME280_pressure;Samples;Min_cycle;Max_cycle;Signal;HPM_P1;HPM_P2
2021/03/31 00:02:00;;;;;;;;;;;12.50;99.90;;;;;;5083496;28;20337;-72
2021/03/31 00:04:25;;;;;;;;;;;12.40;99.90;;;;;;5084605;28;19916;-71
2021/03/31 00:06:51;;;;;;;;;;;12.30;99.90;;;;;;5086108;28;20415;-71
2021/03/31 00:09:17;;;;;;;;;;;;;;;;;;5089620;28;19904;-69
2021/03/31 00:11:42;;;;;;;;;;;12.30;99.90;;;;;;5062668;28;19905;-70
2021/03/31 00:14:12;;;;;;;;;;;12.30;99.90;;;;;;5088507;28;20422;-72
2021/03/31 00:16:38;;;;;;;;;;;12.30;99.90;;;;;;5086306;28;19904;-71
2021/03/31 00:19:04;;;;;;;;;;;12.30;99.90;;;;;;5083308;28;19995;-71
2021/03/31 00:21:29;;;;;;;;;;;12.30;99.90;;;;;;5094669;28;19957;-72
2021/03/31 00:23:55;;;;;;;;;;;12.20;99.90;;;;;;5094245;28;19908;-72
2021/03/31 00:26:20;;;;;;;;;;;12.20;99.90;;;;;;5093645;28;20266;-73
2021/03/31 00:28:48;;;;;;;;;;;11.90;99.90;;;;;;5094722;28;19969;-72
2021/03/31 00:31:16;;;;;;;;;;;;;;;;;;5091077;28;19904;-72
2021/03/31 00:33:42;;;;;;;;;;;;;;;;;;5082437;28;19918;-73
2021/03/31 00:36:08;;;;;;;;;;;12.00;99.90;;;;;;5067011;28;19904;-71
2021/03/31 00:38:34;;;;;;;;;;;12.00;99.90;;;;;;5089208;28;19958;-72
2021/03/31 00:41:00;;;;;;;;;;;12.00;99.90;;;;;;5093704;28;20003;-75
2021/03/31 00:43:25;;;;;;;;;;;12.00;99.90;;;;;;5066144;28;19920;-71
2021/03/31 00:45:51;;;;;;;;;;;12.00;99.90;;;;;;5079955;28;19912;-70
2021/03/31 00:48:17;;;;;;;;;;;12.00;99.90;;;;;;5081516;28;19912;-72
2021/03/31 00:50:43;;;;;;;;;;;12.00;99.90;;;;;;5088398;28;19904;-75
2021/03/31 00:53:09;;;;;;;;;;;12.00;99.90;;;;;;5083404;28;19928;-71
2021/03/31 00:55:35;;;;;;;;;;;11.90;99.90;;;;;;5093751;28;20342;-71
2021/03/31 00:58:01;;;;;;;;;;;11.90;99.90;;;;;;5084800;28;19958;-71
2021/03/31 01:00:26;;;;;;;;;;;11.90;99.90;;;;;;5073164;28;20034;-72
2021/03/31 01:02:52;;;;;;;;;;;12.00;99.90;;;;;;5089646;28;19904;-72
2021/03/31 01:05:27;;;;;;;;;;;11.90;99.90;;;;;;5093770;28;19912;-75
2021/03/31 01:07:53;;;;;;;;;;;11.70;99.90;;;;;;5091684;28;19912;-73
2021/03/31 01:10:21;;;;;;;;;;;11.80;99.90;;;;;;5093468;28;19915;-73
2021/03/31 01:12:46;;;;;;;;;;;11.80;99.90;;;;;;5089219;28;19908;-72
2021/03/31 01:15:12;;;;;;;;;;;12.00;99.90;;;;;;5092411;28;20259;-74
2021/03/31 01:17:56;;;;;;;;;;;12.00;99.90;;;;;;5093136;28;20332;-73
2021/03/31 01:20:21;;;;;;;;;;;12.00;99.90;;;;;;5093108;28;19955;-73
2021/03/31 01:23:00;;;;;;;;;;;11.90;99.90;;;;;;5089590;28;20350;-73
2021/03/31 01:25:29;;;;;;;;;;;11.90;99.90;;;;;;5073443;28;19916;-73
2021/03/31 01:27:55;;;;;;;;;;;;;;;;;;5073455;28;19946;-74
2021/03/31 01:30:21;;;;;;;;;;;;;;;;;;5073037;28;19943;-73
2021/03/31 01:32:50;;;;;;;;;;;11.60;99.90;;;;;;5073688;28;19908;-72
2021/03/31 01:35:17;;;;;;;;;;;11.60;99.90;;;;;;5073590;28;19911;-74
2021/03/31 01:37:44;;;;;;;;;;;11.50;99.90;;;;;;5072883;28;19912;-73
2021/03/31 01:40:12;;;;;;;;;;;11.50;99.90;;;;;;5073340;28;19915;-72
2021/03/31 01:42:39;;;;;;;;;;;;;;;;;;5073471;28;19983;-72
2021/03/31 01:45:06;;;;;;;;;;;;;;;;;;5077001;28;20398;-72
2021/03/31 01:47:37;;;;;;;;;;;11.70;99.90;;;;;;5082634;28;19966;-74
2021/03/31 01:50:04;;;;;;;;;;;11.70;99.90;;;;;;5072980;28;19905;-73
2021/03/31 01:52:30;;;;;;;;;;;11.70;99.90;;;;;;5064775;28;19911;-75
2021/03/31 01:54:56;;;;;;;;;;;11.60;99.90;;;;;;5077372;28;19911;-73
2021/03/31 01:57:22;;;;;;;;;;;;;;;;;;5059330;28;20289;-70
2021/03/31 01:59:48;;;;;;;;;;;11.40;99.90;;;;;;5091251;28;19904;-71
2021/03/31 02:02:15;;;;;;;;;;;11.60;99.90;;;;;;5072160;28;20020;-72
2021/03/31 02:04:41;;;;;;;;;;;11.50;99.90;;;;;;5077710;28;19999;-72
2021/03/31 02:07:07;;;;;;;;;;;11.40;99.90;;;;;;5089298;28;19999;-73
2021/03/31 02:09:33;;;;;;;;;;;11.50;99.90;;;;;;5066250;28;19980;-71
2021/03/31 02:12:00;;;;;;;;;;;11.50;99.90;;;;;;5086718;28;19911;-72
2021/03/31 02:14:26;;;;;;;;;;;11.50;99.90;;;;;;5068658;28;19935;-71
2021/03/31 02:16:52;;;;;;;;;;;11.40;99.90;;;;;;5088785;28;19991;-71
2021/03/31 02:19:18;;;;;;;;;;;;;;;;;;5064913;28;19955;-71
2021/03/31 02:21:45;;;;;;;;;;;10.90;99.90;;;;;;5081190;28;19947;-70
2021/03/31 02:24:14;;;;;;;;;;;11.20;99.90;;;;;;5059664;28;19904;-70
2021/03/31 02:26:40;;;;;;;;;;;10.70;99.90;;;;;;5091198;28;19916;-70
2021/03/31 02:29:06;;;;;;;;;;;;;;;;;;5091046;28;19995;-71
2021/03/31 02:31:32;;;;;;;;;;;;;;;;;;5090463;28;19951;-69
2021/03/31 02:33:58;;;;;;;;;;;9.90;99.90;;;;;;5090700;28;19908;-70
2021/03/31 02:36:23;;;;;;;;;;;9.90;99.90;;;;;;5091731;28;19915;-71
2021/03/31 02:38:49;;;;;;;;;;;9.90;99.90;;;;;;5091621;28;20346;-72
2021/03/31 02:41:16;;;;;;;;;;;10.00;99.90;;;;;;5090319;28;19908;-70
2021/03/31 02:43:42;;;;;;;;;;;10.10;99.90;;;;;;5092034;28;19911;-70
2021/03/31 02:46:08;;;;;;;;;;;10.00;99.90;;;;;;5081283;28;19908;-70
2021/03/31 02:48:35;;;;;;;;;;;10.00;99.90;;;;;;5076941;28;19912;-71
2021/03/31 02:51:00;;;;;;;;;;;10.00;99.90;;;;;;5078358;28;19908;-71
2021/03/31 02:53:26;;;;;;;;;;;10.00;99.90;;;;;;5078975;28;19913;-69
2021/03/31 02:55:52;;;;;;;;;;;10.00;99.90;;;;;;5077822;28;19908;-69
2021/03/31 02:58:18;;;;;;;;;;;9.90;99.90;;;;;;5084643;28;19904;-72
2021/03/31 03:00:43;;;;;;;;;;;9.80;99.90;;;;;;5079949;28;20010;-72
2021/03/31 03:03:10;;;;;;;;;;;9.80;99.90;;;;;;5083785;28;19904;-70
2021/03/31 03:05:35;;;;;;;;;;;9.80;99.90;;;;;;5080472;28;19969;-70
2021/03/31 03:08:02;;;;;;;;;;;9.90;99.90;;;;;;5068815;28;20849;-71
2021/03/31 03:10:28;;;;;;;;;;;9.80;99.90;;;;;;5082232;28;19905;-70
2021/03/31 03:12:55;;;;;;;;;;;9.70;99.90;;;;;;5079738;28;19996;-73
2021/03/31 03:15:23;;;;;;;;;;;9.80;99.90;;;;;;5083877;28;20330;-71
2021/03/31 03:17:49;;;;;;;;;;;9.80;99.90;;;;;;5079745;28;20255;-72
2021/03/31 03:20:15;;;;;;;;;;;9.90;99.90;;;;;;5071454;28;19926;-73
2021/03/31 03:22:43;;;;;;;;;;;9.90;99.90;;;;;;5094939;28;19904;-71
2021/03/31 03:25:10;;;;;;;;;;;9.90;99.90;;;;;;5070867;28;696575;-71
2021/03/31 03:27:37;;;;;;;;;;;10.00;99.90;;;;;;5096482;28;20277;-71
2021/03/31 03:30:05;;;;;;;;;;;10.00;99.90;;;;;;5096450;28;19908;-73
2021/03/31 03:32:30;;;;;;;;;;;10.00;99.90;;;;;;5096692;28;20353;-72
2021/03/31 03:34:56;;;;;;;;;;;10.20;99.90;;;;;;5096327;28;19936;-72
2021/03/31 03:37:22;;;;;;;;;;;10.20;99.90;;;;;;5096972;28;19995;-71
2021/03/31 03:39:47;;;;;;;;;;;10.40;99.90;;;;;;5096206;28;19947;-71
2021/03/31 03:42:13;;;;;;;;;;;10.40;99.90;;;;;;5096587;28;19911;-71
2021/03/31 03:44:39;;;;;;;;;;;10.40;99.90;;;;;;5096060;28;19956;-71
2021/03/31 03:47:05;;;;;;;;;;;10.50;99.90;;;;;;5096367;28;19908;-71
2021/03/31 03:49:35;;;;;;;;;;;10.50;99.90;;;;;;5077941;28;20242;-73
2021/03/31 03:52:01;;;;;;;;;;;10.50;99.90;;;;;;5078084;28;19904;-70
2021/03/31 03:54:26;;;;;;;;;;;10.50;99.90;;;;;;5096089;28;19910;-72
2021/03/31 03:56:52;;;;;;;;;;;10.50;99.90;;;;;;5095307;28;19908;-72
2021/03/31 03:59:22;;;;;;;;;;;10.50;99.90;;;;;;5074978;28;19908;-70
2021/03/31 04:01:48;;;;;;;;;;;10.50;99.90;;;;;;5093885;28;20277;-70
2021/03/31 04:04:14;;;;;;;;;;;10.40;99.90;;;;;;5081920;28;20269;-70
2021/03/31 04:06:39;;;;;;;;;;;10.40;99.90;;;;;;5087685;28;19908;-70
2021/03/31 04:09:05;;;;;;;;;;;10.30;99.90;;;;;;5064008;28;19908;-73
2021/03/31 04:11:33;;;;;;;;;;;10.30;99.90;;;;;;5069542;28;19908;-75
2021/03/31 04:14:00;;;;;;;;;;;10.30;99.90;;;;;;5091383;28;19966;-74
2021/03/31 04:16:27;;;;;;;;;;;10.10;99.90;;;;;;5084185;28;19904;-72
2021/03/31 04:18:53;;;;;;;;;;;10.10;99.90;;;;;;5092286;28;20362;-71
2021/03/31 04:21:19;;;;;;;;;;;10.00;99.90;;;;;;5094932;28;19911;-73
2021/03/31 04:23:45;;;;;;;;;;;9.90;99.90;;;;;;5095758;28;19912;-72
2021/03/31 04:26:11;;;;;;;;;;;9.90;99.90;;;;;;5094600;28;19927;-70
2021/03/31 04:28:36;;;;;;;;;;;9.90;99.90;;;;;;5095304;28;19904;-72
2021/03/31 04:31:04;;;;;;;;;;;9.90;99.90;;;;;;5094124;28;19934;-72
2021/03/31 04:33:30;;;;;;;;;;;9.80;99.90;;;;;;5082344;28;19904;-70
2021/03/31 04:35:56;;;;;;;;;;;9.70;99.90;;;;;;5095908;28;19904;-71
2021/03/31 04:38:21;;;;;;;;;;;9.70;99.90;;;;;;5095034;28;20245;-72
2021/03/31 04:41:03;;;;;;;;;;;9.60;99.90;;;;;;5095147;28;19908;-70
2021/03/31 04:43:30;;;;;;;;;;;9.50;99.90;;;;;;5074626;28;20009;-71
2021/03/31 04:45:59;;;;;;;;;;;9.40;99.90;;;;;;5094826;28;19920;-75
2021/03/31 04:48:25;;;;;;;;;;;9.40;99.90;;;;;;5094879;28;19904;-70
2021/03/31 04:50:50;;;;;;;;;;;9.40;99.90;;;;;;5069400;28;20359;-70
2021/03/31 04:53:16;;;;;;;;;;;9.40;99.90;;;;;;5058631;28;19908;-71
2021/03/31 04:55:42;;;;;;;;;;;9.40;99.90;;;;;;5094390;28;20348;-71
2021/03/31 04:58:10;;;;;;;;;;;9.20;99.90;;;;;;5094072;28;19904;-73
2021/03/31 05:00:36;;;;;;;;;;;9.10;99.90;;;;;;5080803;28;19949;-71
2021/03/31 05:03:02;;;;;;;;;;;9.10;99.90;;;;;;5076733;28;19911;-72
2021/03/31 05:05:27;;;;;;;;;;;9.10;99.90;;;;;;5076081;28;20247;-71
2021/03/31 05:07:53;;;;;;;;;;;9.10;99.90;;;;;;5084742;28;19947;-73
2021/03/31 05:10:19;;;;;;;;;;;9.10;99.90;;;;;;5094692;28;19904;-71
2021/03/31 05:12:44;;;;;;;;;;;9.00;99.90;;;;;;5094805;28;19961;-74
2021/03/31 05:15:10;;;;;;;;;;;9.00;99.90;;;;;;5094308;28;20373;-73
2021/03/31 05:17:35;;;;;;;;;;;9.00;99.90;;;;;;5094417;28;19908;-72
2021/03/31 05:20:02;;;;;;;;;;;9.10;99.90;;;;;;5093731;28;19907;-71
2021/03/31 05:22:28;;;;;;;;;;;9.10;99.90;;;;;;5094436;28;20406;-71
2021/03/31 05:24:53;;;;;;;;;;;9.30;99.90;;;;;;5093960;28;19904;-72
2021/03/31 05:27:19;;;;;;;;;;;9.20;99.90;;;;;;5093845;28;19930;-74
2021/03/31 05:29:44;;;;;;;;;;;9.30;99.90;;;;;;5094229;28;19904;-70
2021/03/31 05:32:10;;;;;;;;;;;9.40;99.90;;;;;;5094369;28;19937;-71
2021/03/31 05:34:36;;;;;;;;;;;9.50;99.90;;;;;;5093629;28;19911;-72
2021/03/31 05:37:02;;;;;;;;;;;9.60;99.90;;;;;;5085918;28;20285;-71
2021/03/31 05:39:27;;;;;;;;;;;9.70;99.90;;;;;;5088386;28;19911;-71
2021/03/31 05:41:53;;;;;;;;;;;9.70;99.90;;;;;;5094459;28;20346;-72
2021/03/31 05:44:19;;;;;;;;;;;9.90;99.90;;;;;;5094663;28;19911;-73
2021/03/31 05:46:45;;;;;;;;;;;10.00;99.90;;;;;;5071463;28;20270;-72
2021/03/31 05:49:24;;;;;;;;;;;10.10;99.90;;;;;;5083253;28;19911;-72
2021/03/31 05:51:50;;;;;;;;;;;10.30;99.90;;;;;;5073144;28;19958;-73
2021/03/31 05:54:15;;;;;;;;;;;10.40;99.90;;;;;;5092733;28;19904;-70
2021/03/31 05:56:41;;;;;;;;;;;10.50;99.90;;;;;;5092184;28;19904;-69
2021/03/31 05:59:08;;;;;;;;;;;10.60;99.90;;;;;;5091616;28;19911;-71
2021/03/31 06:01:34;;;;;;;;;;;10.80;99.90;;;;;;5093248;28;19908;-72
2021/03/31 06:04:00;;;;;;;;;;;10.90;99.90;;;;;;5093000;28;19915;-70
2021/03/31 06:06:26;;;;;;;;;;;11.10;99.90;;;;;;5068521;28;19957;-72
2021/03/31 06:08:52;;;;;;;;;;;11.40;99.90;;;;;;5089239;28;19912;-71
2021/03/31 06:11:20;;;;;;;;;;;11.60;99.90;;;;;;5065953;28;19908;-69
2021/03/31 06:13:56;;;;;;;;;;;11.60;99.90;;;;;;5079371;28;19935;-71
2021/03/31 06:16:30;;;;;;;;;;;11.50;99.90;;;;;;5078055;28;19915;-74
2021/03/31 06:18:56;;;;;;;;;;;11.70;99.90;;;;;;5091488;28;19908;-71
2021/03/31 06:21:22;;;;;;;;;;;11.90;99.90;;;;;;5092465;28;20374;-71
2021/03/31 06:24:04;;;;;;;;;;;12.10;99.90;;;;;;5092760;28;20021;-70
2021/03/31 06:26:31;;;;;;;;;;;12.30;99.90;;;;;;5091649;28;20053;-73
2021/03/31 06:28:56;;;;;;;;;;;12.20;99.90;;;;;;5074398;28;20310;-74
2021/03/31 06:31:26;;;;;;;;;;;12.40;99.90;;;;;;5094185;28;20005;-72
2021/03/31 06:33:51;;;;;;;;;;;12.40;99.90;;;;;;5097048;28;19904;-75
2021/03/31 06:36:18;;;;;;;;;;;12.40;99.90;;;;;;5095417;28;19910;-73
2021/03/31 06:38:49;;;;;;;;;;;12.60;99.90;;;;;;5070852;28;19912;-72
2021/03/31 06:43:59;;;;;;;;;;;12.50;99.90;;;;;;5096661;28;19904;-74
2021/03/31 06:47:11;;;;;;;;;;;12.40;99.90;;;;;;5095307;28;19930;-74
2021/03/31 06:49:14;;;;;;;;;;;12.50;99.90;;;;;;5079508;28;19904;-71
2021/03/31 06:51:40;;;;;;;;;;;12.40;99.90;;;;;;5095281;28;19912;-71
2021/03/31 06:54:13;;;;;;;;;;;12.40;99.90;;;;;;5096807;28;19949;-72
2021/03/31 06:56:38;;;;;;;;;;;12.40;99.90;;;;;;5095208;28;19908;-72
2021/03/31 06:59:04;;;;;;;;;;;12.40;99.90;;;;;;5096001;28;19904;-71
2021/03/31 07:01:33;;;;;;;;;;;12.50;99.90;;;;;;5096248;28;19915;-76
2021/03/31 07:03:59;;;;;;;;;;;;;;;;;;5095519;28;19904;-73
2021/03/31 07:06:25;;;;;;;;;;;;;;;;;;5095693;28;19933;-71
2021/03/31 07:08:51;;;;;;;;;;;;;;;;;;5094836;28;19904;-74
2021/03/31 07:11:33;;;;;;;;;;;12.80;99.90;;;;;;5095383;28;19912;-71
2021/03/31 07:14:03;;;;;;;;;;;12.80;99.90;;;;;;5095141;28;19904;-73
2021/03/31 07:16:30;;;;;;;;;;;12.80;99.90;;;;;;5095478;28;19919;-72
2021/03/31 07:18:56;;;;;;;;;;;12.80;99.90;;;;;;5094838;28;20307;-71
2021/03/31 07:21:22;;;;;;;;;;;12.80;99.90;;;;;;5095085;28;20326;-72
2021/03/31 07:23:48;;;;;;;;;;;;;;;;;;5095164;28;19954;-72
2021/03/31 07:26:15;;;;;;;;;;;12.90;99.90;;;;;;5093977;28;19981;-73
2021/03/31 07:28:40;;;;;;;;;;;13.00;99.90;;;;;;5095073;28;19911;-72
2021/03/31 07:31:06;;;;;;;;;;;;;;;;;;5094445;28;20351;-73
2021/03/31 07:33:39;;;;;;;;;;;13.20;99.90;;;;;;5093636;28;19997;-73
2021/03/31 07:36:05;;;;;;;;;;;;;;;;;;5070375;28;19904;-71
2021/03/31 07:38:31;;;;;;;;;;;13.50;99.90;;;;;;5089460;28;20344;-71
2021/03/31 07:40:59;;;;;;;;;;;;;;;;;;5088370;28;19911;-72
2021/03/31 07:43:30;;;;;;;;;;;13.80;99.90;;;;;;5093853;28;20365;-72
2021/03/31 07:46:00;;;;;;;;;;;14.10;99.90;;;;;;5094480;28;20356;-71
2021/03/31 07:48:26;;;;;;;;;;;14.10;99.90;;;;;;5095754;28;19908;-70
2021/03/31 07:50:51;;;;;;;;;;;14.00;99.90;;;;;;5094912;28;19907;-71
2021/03/31 07:53:20;;;;;;;;;;;14.30;99.90;;;;;;5093989;28;20357;-73
2021/03/31 07:55:47;;;;;;;;;;;;;;;;;;5095225;28;19940;-71
2021/03/31 07:58:14;;;;;;;;;;;14.60;99.90;;;;;;5094719;28;19908;-71
2021/03/31 08:01:02;;;;;;;;;;;14.50;99.90;;;;;;5094476;28;20417;-73
2021/03/31 08:03:35;;;;;;;;;;;14.60;99.90;;;;;;5077513;28;20304;-71
2021/03/31 08:06:04;;;;;;;;;;;15.30;99.90;;;;;;5084436;28;19919;-72
2021/03/31 08:08:30;;;;;;;;;;;;;;;;;;5091691;28;19904;-70
2021/03/31 08:10:56;;;;;;;;;;;15.00;99.90;;;;;;5091554;28;19904;-72
2021/03/31 08:13:30;;;;;;;;;;;15.00;99.90;;;;;;5064330;28;19904;-71
2021/03/31 08:15:57;;;;;;;;;;;15.00;99.90;;;;;;5090716;28;19908;-71
2021/03/31 08:18:23;;;;;;;;;;;15.10;99.90;;;;;;5070888;28;19912;-70
2021/03/31 08:20:49;;;;;;;;;;;15.20;99.90;;;;;;5091626;28;20315;-71
2021/03/31 08:23:34;;;;;;;;;;;15.30;99.90;;;;;;5094805;28;19904;-70
2021/03/31 08:26:20;;;;;;;;;;;15.30;99.90;;;;;;5091912;28;19966;-70
2021/03/31 08:28:45;;;;;;;;;;;15.30;99.90;;;;;;5094788;28;19915;-70
2021/03/31 08:31:18;;;;;;;;;;;15.50;99.90;;;;;;5088184;28;19908;-72
2021/03/31 08:33:43;;;;;;;;;;;15.60;99.90;;;;;;5089398;28;20290;-73
2021/03/31 08:36:09;;;;;;;;;;;15.70;99.90;;;;;;5089430;28;19946;-71
2021/03/31 08:38:35;;;;;;;;;;;15.60;92.50;;;;;;5084898;28;19962;-71
2021/03/31 08:41:12;;;;;;;;;;;15.80;93.90;;;;;;5087924;28;20354;-72
2021/03/31 08:43:38;;;;;;;;;;;15.80;95.30;;;;;;5068595;28;19978;-72
2021/03/31 08:46:04;;;;;;;;;;;15.80;98.30;;;;;;5094502;28;20358;-70
2021/03/31 08:48:37;;;;;;;;;;;15.80;99.90;;;;;;5068604;28;20337;-72
2021/03/31 08:51:06;;;;;;;;;;;16.10;99.90;;;;;;5087303;28;20002;-71
2021/03/31 08:53:32;;;;;;;;;;;16.50;99.90;;;;;;5093731;28;19919;-73
2021/03/31 08:55:58;;;;;;;;;;;17.40;99.90;;;;;;5094035;28;19920;-71
2021/03/31 08:58:26;;;;;;;;;;;16.60;99.90;;;;;;5094205;28;20235;-72
2021/03/31 09:00:52;;;;;;;;;;;16.60;92.40;;;;;;5088254;28;19911;-73
2021/03/31 09:03:17;;;;;;;;;;;16.60;92.90;;;;;;5069601;28;20596;-71
2021/03/31 09:05:57;;;;;;;56.88;34.20;;;16.80;92.20;;;;;;5091174;28;20515;-72
2021/03/31 09:08:23;;;;;;;;;;;16.70;93.30;;;;;;5093546;28;20032;-73
2021/03/31 09:11:01;;;;;;;46.92;31.45;;;16.90;97.70;;;;;;5083960;28;20370;-73
2021/03/31 09:13:35;;;;;;;32.28;25.85;;;16.90;98.00;;;;;;5091834;28;20108;-73
2021/03/31 09:16:02;;;;;;;;;;;17.20;91.20;;;;;;5088997;28;20081;-72
2021/03/31 09:18:29;;;;;;;31.73;25.70;;;17.40;95.20;;;;;;5090522;28;19990;-70
2021/03/31 09:20:55;;;;;;;;;;;17.40;98.00;;;;;;5057779;28;20032;-72
2021/03/31 09:23:21;;;;;;;;;;;17.20;91.50;;;;;;5075627;28;20120;-75
2021/03/31 09:26:00;;;;;;;45.67;31.00;;;17.30;97.80;;;;;;5059061;28;20419;-74
2021/03/31 09:28:25;;;;;;;;;;;17.40;82.30;;;;;;5081505;28;20249;-72
2021/03/31 09:31:01;;;;;;;48.25;32.05;;;17.50;78.10;;;;;;5092323;28;20472;-74
2021/03/31 09:33:32;;;;;;;36.92;28.33;;;17.60;77.90;;;;;;5081892;28;20032;-76
2021/03/31 09:36:11;;;;;;;49.17;31.90;;;17.60;75.40;;;;;;5093376;28;20072;-71
2021/03/31 09:38:52;;;;;;;;;;;17.60;71.00;;;;;;5061684;28;20043;-73
2021/03/31 09:41:18;;;;;;;46.67;31.45;;;17.70;78.20;;;;;;5090421;28;20385;-69
2021/03/31 09:43:48;;;;;;;36.65;27.83;;;17.90;74.90;;;;;;5087857;28;20090;-71
2021/03/31 09:46:14;;;;;;;34.97;27.55;;;18.00;71.40;;;;;;5087456;28;20111;-68
2021/03/31 09:48:40;;;;;;;28.58;24.77;;;18.10;68.40;;;;;;5087539;28;20060;-73
2021/03/31 09:51:12;;;;;;;31.58;26.13;;;18.10;76.30;;;;;;5087883;28;20024;-71
2021/03/31 09:53:38;;;;;;;28.80;25.08;;;18.20;64.90;;;;;;5073187;28;20063;-70
2021/03/31 09:56:04;;;;;;;32.17;26.45;;;18.20;67.70;;;;;;5092622;28;20060;-72
2021/03/31 09:58:31;;;;;;;27.35;24.35;;;18.40;64.50;;;;;;5072517;28;20028;-76
2021/03/31 10:00:58;;;;;;;27.58;24.45;;;18.40;62.40;;;;;;5074225;28;20032;-72
2021/03/31 10:03:24;;;;;;;29.42;25.15;;;18.60;61.70;;;;;;5092412;28;20047;-74
2021/03/31 10:05:50;;;;;;;32.72;26.67;;;18.50;60.30;;;;;;5085397;28;20032;-72
2021/03/31 10:08:25;;;;;;;;;;;18.20;61.30;;;;;;5073532;28;20020;-74
2021/03/31 10:10:55;;;;;;;52.78;33.00;;;18.20;60.30;;;;;;5072899;28;20387;-70
2021/03/31 10:13:25;;;;;;;25.10;22.60;;;18.50;60.80;;;;;;5074347;28;20112;-71
2021/03/31 10:16:00;;;;;;;29.05;26.15;;;18.60;58.80;;;;;;5091197;28;20044;-70
2021/03/31 10:18:29;;;;;;;25.70;23.10;;;18.60;60.60;;;;;;5076125;28;20049;-73
2021/03/31 10:20:59;;;;;;;31.30;26.40;;;18.80;61.30;;;;;;5089180;28;20547;-74
2021/03/31 10:23:37;;;;;;;34.78;27.67;;;18.80;61.80;;;;;;5074144;28;20020;-74
2021/03/31 10:26:22;;;;;;;35.17;27.73;;;19.00;66.10;;;;;;5092462;28;20052;-71
2021/03/31 10:28:49;;;;;;;41.22;29.85;;;18.90;60.80;;;;;;5092376;28;20031;-70
2021/03/31 10:31:23;;;;;;;36.75;28.33;;;18.90;63.20;;;;;;5091739;28;20399;-72
2021/03/31 10:33:49;;;;;;;36.53;29.67;;;18.90;62.00;;;;;;5092188;28;20028;-72
2021/03/31 10:36:34;;;;;;;44.70;31.27;;;18.70;59.30;;;;;;5090047;28;20089;-71
2021/03/31 10:46:49;;;;;;;44.47;31.05;;;19.00;62.70;;;;;;5091916;28;20438;-74
2021/03/31 10:48:05;;;;;;;29.33;25.75;;;19.50;66.40;;;;;;5076613;28;20580;-71
2021/03/31 10:50:24;;;;;;;28.55;25.33;;;19.50;68.00;;;;;;5084988;28;20020;-73
2021/03/31 10:52:53;;;;;;;27.17;24.30;;;19.80;74.80;;;;;;5087742;28;20099;-70
2021/03/31 10:55:18;;;;;;;25.88;23.27;;;19.80;78.40;;;;;;5071942;28;20467;-71
2021/03/31 10:57:44;;;;;;;26.38;23.75;;;19.90;78.60;;;;;;5073358;28;20134;-69
2021/03/31 11:00:11;;;;;;;26.45;23.75;;;19.70;56.30;;;;;;5092316;28;20024;-69
2021/03/31 11:02:36;;;;;;;33.10;27.80;;;19.90;57.50;;;;;;5081921;28;20028;-69
2021/03/31 11:05:03;;;;;;;29.00;25.77;;;19.80;58.20;;;;;;5077348;28;20046;-73
2021/03/31 11:07:29;;;;;;;26.55;23.88;;;20.00;57.50;;;;;;5084313;28;20379;-72
2021/03/31 11:09:54;;;;;;;28.10;25.40;;;19.40;56.20;;;;;;5076278;28;20082;-73
2021/03/31 11:12:20;;;;;;;24.85;22.52;;;19.20;57.10;;;;;;5076083;28;20059;-71
2021/03/31 11:14:46;;;;;;;26.65;23.95;;;19.60;58.10;;;;;;5074048;28;20024;-73
2021/03/31 11:27:37;;;;;;;26.90;24.17;;;20.40;55.70;;;;;;5096011;28;20054;-72
2021/03/31 11:30:07;;;;;;;26.67;24.00;;;20.50;56.70;;;;;;5096228;28;20036;-68
2021/03/31 11:32:33;;;;;;;24.65;22.35;;;20.50;56.60;;;;;;5082171;28;20032;-71
2021/03/31 11:34:59;;;;;;;24.38;22.20;;;20.00;56.30;;;;;;5077424;28;20035;-73
2021/03/31 11:37:26;;;;;;;24.08;21.90;;;20.00;57.10;;;;;;5095310;28;20384;-72
2021/03/31 11:39:51;;;;;;;25.30;22.92;;;20.00;57.80;;;;;;5095170;28;20103;-71
2021/03/31 11:42:18;;;;;;;32.85;27.52;;;20.10;58.20;;;;;;5095993;28;20434;-70
2021/03/31 11:44:43;;;;;;;30.52;26.42;;;20.20;58.00;;;;;;5095368;28;20020;-71
2021/03/31 11:47:09;;;;;;;31.58;26.75;;;20.20;60.80;;;;;;5086378;28;20036;-72
2021/03/31 11:49:35;;;;;;;32.90;27.52;;;20.20;57.90;;;;;;5064259;28;20117;-71
2021/03/31 11:52:01;;;;;;;30.90;26.75;;;20.10;57.60;;;;;;5093664;28;20020;-70
2021/03/31 11:54:27;;;;;;;32.17;27.27;;;20.10;58.30;;;;;;5093822;28;20445;-70
2021/03/31 11:56:52;;;;;;;32.33;27.23;;;20.20;57.30;;;;;;5091615;28;20034;-70
2021/03/31 11:59:18;;;;;;;34.85;28.52;;;20.40;59.40;;;;;;5075373;28;20386;-71
2021/03/31 12:01:44;;;;;;;32.67;27.38;;;20.30;55.80;;;;;;5069229;28;20474;-72
2021/03/31 12:04:13;;;;;;;32.67;27.42;;;20.50;56.80;;;;;;5094707;28;20033;-73
2021/03/31 12:06:39;;;;;;;29.77;26.30;;;20.60;57.60;;;;;;5076264;28;20040;-72
2021/03/31 12:09:08;;;;;;;29.25;26.05;;;20.30;55.00;;;;;;5093798;28;20529;-70
2021/03/31 12:11:34;;;;;;;29.48;26.17;;;20.50;54.80;;;;;;5087551;28;20125;-69
2021/03/31 12:14:00;;;;;;;32.05;27.42;;;20.30;55.10;;;;;;5082659;28;20032;-71
2021/03/31 12:16:26;;;;;;;32.50;27.42;;;20.30;55.70;;;;;;5089234;28;20458;-69
2021/03/31 12:18:52;;;;;;;28.58;25.52;;;20.60;57.80;;;;;;5086730;28;20036;-70
2021/03/31 12:21:18;;;;;;;26.95;24.25;;;20.70;55.20;;;;;;5075428;28;20113;-72
2021/03/31 12:23:44;;;;;;;26.58;23.92;;;20.80;53.60;;;;;;5094285;28;20474;-71
2021/03/31 12:26:10;;;;;;;25.00;22.65;;;20.80;55.30;;;;;;5072483;28;20079;-72
2021/03/31 12:28:36;;;;;;;22.58;20.67;;;20.80;55.30;;;;;;5070919;28;20021;-69
2021/03/31 12:31:07;;;;;;;22.55;20.67;;;20.70;54.10;;;;;;5071880;28;20697;-69
2021/03/31 12:33:37;;;;;;;21.13;19.50;;;20.20;53.00;;;;;;5070385;28;20055;-70
2021/03/31 12:36:03;;;;;;;22.70;20.77;;;20.50;55.80;;;;;;5073403;28;20060;-74
2021/03/31 12:38:29;;;;;;;23.42;21.35;;;20.70;54.40;;;;;;5070673;28;20021;-71
2021/03/31 12:40:55;;;;;;;17.75;16.58;;;20.80;53.60;;;;;;5071975;28;20027;-70
2021/03/31 12:43:21;;;;;;;21.40;19.80;;;20.90;54.70;;;;;;5070533;28;20059;-72
2021/03/31 12:45:47;;;;;;;19.73;18.33;;;21.10;54.30;;;;;;5072220;28;20051;-70
2021/03/31 12:48:28;;;;;;;;;;;21.40;62.40;;;;;;5073081;28;20454;-73
2021/03/31 12:51:02;;;;;;;86.72;42.70;;;21.70;56.40;;;;;;5061394;28;20396;-73
2021/03/31 12:53:32;;;;;;;28.70;25.73;;;21.40;52.10;;;;;;5072049;28;20439;-77
2021/03/31 12:55:59;;;;;;;27.30;24.63;;;21.40;52.70;;;;;;5062787;28;20115;-70
2021/03/31 12:58:24;;;;;;;25.23;22.88;;;21.50;52.60;;;;;;5070204;28;20031;-73
2021/03/31 13:00:54;;;;;;;25.83;23.40;;;21.70;54.60;;;;;;5073908;28;20100;-71
2021/03/31 13:03:20;;;;;;;21.98;20.27;;;21.90;53.30;;;;;;5072180;28;20036;-75
2021/03/31 13:05:46;;;;;;;;;;;21.90;52.50;;;;;;5072148;28;20047;-70
2021/03/31 13:08:13;;;;;;;44.50;32.58;;;21.60;52.90;;;;;;5057907;28;20877;-72
2021/03/31 13:10:45;;;;;;;;;;;21.70;52.90;;;;;;5069774;28;20032;-70
2021/03/31 13:13:26;;;;;;;45.10;32.97;;;21.90;54.00;;;;;;5069723;28;20727;-77
2021/03/31 13:16:01;;;;;;;;;;;22.40;59.50;;;;;;5072179;28;20037;-73
2021/03/31 13:26:17;;;;;;;;;;;22.20;53.10;;;;;;5083340;28;20051;-70
2021/03/31 13:31:20;;;;;;;;;;;22.30;54.50;;;;;;5090879;28;20020;-71
2021/03/31 13:33:53;;;;;;;57.78;36.55;;;22.30;54.20;;;;;;5088980;28;20386;-70
2021/03/31 13:36:27;;;;;;;;;;;22.40;56.20;;;;;;5088832;28;20053;-73
2021/03/31 13:41:19;;;;;;;41.23;31.73;;;22.90;52.50;;;;;;5089821;28;20389;-71
2021/03/31 13:43:44;;;;;;;;;;;22.60;52.10;;;;;;5090719;28;20020;-74
2021/03/31 13:46:10;;;;;;;36.87;30.27;;;23.20;79.50;;;;;;5088784;28;20505;-73
2021/03/31 13:48:44;;;;;;;21.25;19.70;;;23.00;76.60;;;;;;5090833;28;20099;-71
2021/03/31 13:51:12;;;;;;;;;;;23.10;53.20;;;;;;5090488;28;20303;-74
2021/03/31 13:53:39;;;;;;;;;;;23.10;50.20;;;;;;5089675;28;19904;-70
2021/03/31 13:56:11;;;;;;;18.83;17.55;;;23.40;51.20;;;;;;5091120;28;19908;-75
2021/03/31 13:58:37;;;;;;;;;;;23.10;50.90;;;;;;5062817;28;20478;-75
2021/03/31 14:01:03;;;;;;;;;;;23.10;50.40;;;;;;5098920;28;19982;-71
2021/03/31 14:03:29;;;;;;;;;;;23.30;50.20;;;;;;5064489;28;19904;-69
2021/03/31 14:05:54;;;;;;;;;;;23.50;49.90;;;;;;5077504;28;20074;-75
2021/03/31 14:08:20;;;;;;;64.53;38.60;;;24.00;49.20;;;;;;5091212;28;20378;-73
2021/03/31 14:10:46;;;;;;;;;;;24.40;48.50;;;;;;5077666;28;20095;-76
2021/03/31 14:13:12;;;;;;;93.90;45.00;;;25.10;48.40;;;;;;5079428;28;20796;-74
2021/03/31 14:15:38;;;;;;;32.67;28.73;;;25.00;46.80;;;;;;5089293;28;20101;-77
2021/03/31 14:18:05;;;;;;;36.67;30.67;;;25.20;48.20;;;;;;5091036;28;20413;-77
2021/03/31 14:20:31;;;;;;;36.35;30.60;;;25.70;46.80;;;;;;5090320;28;20444;-74
2021/03/31 14:22:57;;;;;;;31.65;28.33;;;26.00;46.00;;;;;;5091309;28;20095;-73
2021/03/31 14:25:24;;;;;;;27.77;25.15;;;26.10;46.40;;;;;;5091637;28;20044;-71
2021/03/31 14:27:50;;;;;;;32.65;29.10;;;26.30;45.70;;;;;;5075698;28;20024;-70